createdAt,value
2023-04-09T00:01:16.689Z,19.83
2023-04-09T00:03:45.069Z,18.53
2023-04-09T00:06:14.829Z,18.73
2023-04-09T00:08:43.234Z,19.50
2023-04-09T00:11:11.590Z,20.37
2023-04-09T00:13:40.235Z,19.43
2023-04-09T00:16:09.190Z,19.87
2023-04-09T00:18:37.800Z,20.23
2023-04-09T00:21:07.222Z,21.37
2023-04-09T00:23:37.098Z,21.50
2023-04-09T00:26:05.688Z,21.27
2023-04-09T00:28:34.012Z,21.87
2023-04-09T00:31:02.325Z,20.97
2023-04-09T00:33:31.683Z,21.87
2023-04-09T00:36:00.017Z,21.27
2023-04-09T00:38:28.332Z,20.27
2023-04-09T00:40:57.993Z,19.33
2023-04-09T00:43:27.077Z,21.63
2023-04-09T00:45:55.793Z,20.70
2023-04-09T00:48:24.404Z,22.17
2023-04-09T00:50:52.768Z,21.17
2023-04-09T00:53:21.859Z,21.50
2023-04-09T00:55:50.249Z,21.57
2023-04-09T00:58:20.001Z,20.57
2023-04-09T01:00:48.453Z,20.47
2023-04-09T01:03:17.230Z,21.13
2023-04-09T01:05:53.161Z,20.47
2023-04-09T01:08:33.938Z,20.53
2023-04-09T01:11:10.794Z,19.40
2023-04-09T01:13:48.841Z,19.30
2023-04-09T01:16:19.921Z,20.80
2023-04-09T01:18:54.004Z,21.00
2023-04-09T01:21:27.570Z,19.93
2023-04-09T01:24:04.106Z,19.73
2023-04-09T01:26:46.869Z,18.90
2023-04-09T01:29:19.808Z,20.37
2023-04-09T01:31:48.964Z,19.70
2023-04-09T01:34:18.097Z,20.10
2023-04-09T01:36:50.281Z,21.17
2023-04-09T01:39:18.842Z,19.47
2023-04-09T01:41:49.403Z,19.07
2023-04-09T01:44:20.732Z,19.37
2023-04-09T01:46:50.170Z,19.57
2023-04-09T01:49:19.615Z,19.87
2023-04-09T01:51:49.528Z,18.67
2023-04-09T01:54:18.168Z,19.83
2023-04-09T01:56:49.628Z,19.33
2023-04-09T01:59:19.355Z,19.80
2023-04-09T02:01:49.310Z,19.07
2023-04-09T02:04:23.788Z,20.17
2023-04-09T02:06:58.706Z,19.93
2023-04-09T02:09:30.418Z,19.20
2023-04-09T02:12:02.578Z,20.17
2023-04-09T02:14:33.803Z,20.13
2023-04-09T02:17:02.603Z,19.13
2023-04-09T02:19:40.771Z,19.80
2023-04-09T02:22:09.341Z,19.53
2023-04-09T02:24:37.750Z,18.77
2023-04-09T02:27:06.233Z,18.60
2023-04-09T02:29:36.063Z,19.27
2023-04-09T02:32:04.430Z,19.07
2023-04-09T02:34:32.867Z,18.27
2023-04-09T02:37:01.220Z,19.33
2023-04-09T02:39:29.540Z,18.30
2023-04-09T02:41:57.949Z,19.27
2023-04-09T02:44:26.403Z,19.10
2023-04-09T02:46:56.037Z,19.73
2023-04-09T02:49:24.334Z,19.13
2023-04-09T02:51:52.608Z,19.47
2023-04-09T02:54:20.990Z,18.37
2023-04-09T02:56:49.390Z,18.43
2023-04-09T02:59:17.695Z,18.23
2023-04-09T03:01:46.036Z,17.80
2023-04-09T03:04:15.930Z,17.73
2023-04-09T03:06:44.301Z,18.73
2023-04-09T03:09:12.648Z,18.40
2023-04-09T03:11:40.990Z,18.07
2023-04-09T03:14:09.365Z,17.73
2023-04-09T03:16:37.624Z,18.67
2023-04-09T03:19:05.984Z,19.43
2023-04-09T03:21:35.692Z,18.97
2023-04-09T03:24:04.069Z,17.30
2023-04-09T03:26:36.532Z,19.17
2023-04-09T03:29:05.098Z,19.17
2023-04-09T03:31:33.620Z,16.83
2023-04-09T03:34:02.043Z,17.70
2023-04-09T03:36:31.310Z,19.10
2023-04-09T03:39:01.864Z,17.10
2023-04-09T03:41:30.229Z,17.03
2023-04-09T03:43:58.584Z,17.87
2023-04-09T03:46:26.989Z,18.07
2023-04-09T03:48:55.373Z,15.73
2023-04-09T03:51:23.712Z,17.03
2023-04-09T03:53:52.100Z,17.30
2023-04-09T03:56:22.420Z,16.90
2023-04-09T03:58:51.051Z,17.27
2023-04-09T04:01:19.473Z,17.27
2023-04-09T04:03:47.984Z,17.80
2023-04-09T04:06:16.590Z,16.90
2023-04-09T04:08:45.286Z,16.80
2023-04-09T04:11:13.647Z,17.50
2023-04-09T04:13:43.445Z,17.30
2023-04-09T04:16:11.983Z,16.90
2023-04-09T04:18:40.346Z,17.23
2023-04-09T04:21:14.798Z,17.13
2023-04-09T04:23:43.266Z,15.87
2023-04-09T04:26:11.782Z,16.30
2023-04-09T04:28:40.790Z,16.60
2023-04-09T04:31:11.330Z,17.37
2023-04-09T04:33:40.691Z,16.67
2023-04-09T04:36:10.522Z,17.27
2023-04-09T04:38:39.232Z,17.27
2023-04-09T04:41:07.780Z,16.87
2023-04-09T04:43:36.073Z,17.30
2023-04-09T04:46:04.391Z,16.50
2023-04-09T04:48:34.123Z,16.67
2023-04-09T04:51:03.567Z,16.93
2023-04-09T04:53:31.831Z,15.83
2023-04-09T04:56:00.201Z,16.27
2023-04-09T04:58:29.440Z,16.73
2023-04-09T05:00:57.818Z,16.33
2023-04-09T05:03:27.584Z,16.47
2023-04-09T05:05:57.549Z,16.67
2023-04-09T05:08:25.912Z,16.63
2023-04-09T05:10:56.157Z,16.77
2023-04-09T05:13:25.009Z,16.77
2023-04-09T05:15:53.333Z,17.70
2023-04-09T05:18:21.749Z,15.87
2023-04-09T05:20:50.063Z,15.97
2023-04-09T05:23:19.719Z,15.63
2023-04-09T05:25:50.248Z,15.87
2023-04-09T05:28:18.913Z,17.27
2023-04-09T05:30:48.322Z,17.20
2023-04-09T05:33:16.883Z,16.23
2023-04-09T05:35:45.210Z,16.37
2023-04-09T05:38:14.105Z,16.73
2023-04-09T05:40:45.135Z,16.07
2023-04-09T05:43:13.480Z,16.47
2023-04-09T05:45:41.982Z,16.57
2023-04-09T05:48:10.348Z,16.30
2023-04-09T05:50:53.298Z,17.07
2023-04-09T05:53:22.880Z,17.07
2023-04-09T05:55:52.584Z,18.57
2023-04-09T05:58:21.305Z,16.50
2023-04-09T06:00:51.685Z,15.60
2023-04-09T06:03:20.795Z,16.67
2023-04-09T06:05:49.496Z,16.30
2023-04-09T06:08:17.889Z,16.40
2023-04-09T06:10:46.983Z,16.43
2023-04-09T06:13:16.669Z,15.90
2023-04-09T06:15:45.011Z,16.13
2023-04-09T06:18:13.344Z,15.10
2023-04-09T06:20:41.687Z,15.03
2023-04-09T06:23:10.094Z,15.70
2023-04-09T06:25:38.421Z,14.40
2023-04-09T06:28:07.007Z,15.03
2023-04-09T06:30:37.444Z,15.60
2023-04-09T06:33:05.950Z,15.27
2023-04-09T06:35:34.396Z,14.60
2023-04-09T06:38:02.722Z,14.13
2023-04-09T06:40:31.560Z,15.60
2023-04-09T06:42:59.890Z,14.93
2023-04-09T06:45:28.306Z,14.43
2023-04-09T06:47:58.170Z,15.57
2023-04-09T06:50:26.740Z,14.53
2023-04-09T06:52:55.526Z,14.43
2023-04-09T06:55:23.798Z,14.73
2023-04-09T06:57:52.126Z,15.33
2023-04-09T07:00:20.488Z,13.37
2023-04-09T07:02:48.984Z,11.80
2023-04-09T07:05:19.190Z,14.00
2023-04-09T07:07:47.496Z,13.20
2023-04-09T07:10:15.813Z,10.97
2023-04-09T07:12:44.135Z,12.67
2023-04-09T07:15:12.561Z,12.37
2023-04-09T07:17:40.907Z,13.30
2023-04-09T07:20:09.995Z,12.37
2023-04-09T07:22:39.777Z,13.17
2023-04-09T07:25:09.361Z,12.83
2023-04-09T07:27:37.850Z,13.23
2023-04-09T07:30:07.143Z,14.67
2023-04-09T07:32:35.986Z,13.87
2023-04-09T07:35:05.248Z,14.70
2023-04-09T07:37:33.600Z,13.97
2023-04-09T07:40:04.343Z,14.13
2023-04-09T07:42:32.771Z,14.00
2023-04-09T07:45:01.117Z,13.27
2023-04-09T07:47:29.706Z,12.70
2023-04-09T07:49:58.032Z,11.57
2023-04-09T07:52:26.351Z,10.87
2023-04-09T07:54:54.678Z,10.83
2023-04-09T07:57:24.423Z,10.17
2023-04-09T07:59:54.198Z,11.47
2023-04-09T08:02:23.279Z,11.53
2023-04-09T08:04:51.948Z,11.33
2023-04-09T08:07:20.363Z,11.40
2023-04-09T08:09:48.793Z,10.63
2023-04-09T08:12:17.238Z,11.40
2023-04-09T08:14:46.976Z,10.93
2023-04-09T08:17:15.445Z,11.80
2023-04-09T08:19:43.769Z,12.63
2023-04-09T08:22:12.060Z,11.23
2023-04-09T08:24:40.393Z,11.00
2023-04-09T08:27:08.739Z,11.33
2023-04-09T08:29:37.116Z,11.13
2023-04-09T08:32:07.087Z,10.53
2023-04-09T08:34:35.893Z,10.73
2023-04-09T08:37:10.545Z,11.70
2023-04-09T08:39:38.876Z,11.10
2023-04-09T08:42:09.380Z,10.87
2023-04-09T08:44:37.707Z,10.33
2023-04-09T08:47:11.708Z,11.13
2023-04-09T08:49:41.892Z,11.30
2023-04-09T08:52:36.457Z,10.37
2023-04-09T08:55:05.185Z,11.67
2023-04-09T08:57:44.322Z,12.20
2023-04-09T09:00:14.091Z,11.40
2023-04-09T09:03:03.042Z,10.90
2023-04-09T09:05:42.645Z,10.57
2023-04-09T09:08:40.040Z,10.77
2023-04-09T09:11:08.347Z,11.40
2023-04-09T09:13:36.684Z,9.80
2023-04-09T09:16:15.021Z,9.80
2023-04-09T09:18:46.266Z,8.23
2023-04-09T09:21:15.817Z,8.93
2023-04-09T09:23:44.873Z,8.97
2023-04-09T09:26:14.638Z,9.63
2023-04-09T09:28:43.081Z,9.23
2023-04-09T09:31:12.290Z,9.60
2023-04-09T09:33:41.427Z,10.67
2023-04-09T09:36:11.645Z,11.53
2023-04-09T09:38:55.580Z,9.83
2023-04-09T09:41:25.140Z,10.13
2023-04-09T09:43:53.615Z,9.23
2023-04-09T09:46:23.266Z,8.63
2023-04-09T09:48:52.085Z,9.87
2023-04-09T09:51:27.769Z,9.40
2023-04-09T09:53:58.332Z,9.90
2023-04-09T09:56:32.813Z,9.93
2023-04-09T09:59:08.758Z,8.77
2023-04-09T10:01:38.910Z,8.63
2023-04-09T10:04:13.614Z,8.87
2023-04-09T10:06:45.077Z,9.30
2023-04-09T10:09:14.920Z,8.43
2023-04-09T10:11:45.713Z,8.10
2023-04-09T10:14:14.900Z,8.93
2023-04-09T10:16:43.374Z,9.03
2023-04-09T10:19:17.049Z,8.83
2023-04-09T10:21:57.956Z,8.33
2023-04-09T10:24:26.724Z,8.20
2023-04-09T10:26:56.231Z,8.93
2023-04-09T10:29:30.090Z,10.40
2023-04-09T10:32:06.416Z,12.97
2023-04-09T10:34:37.744Z,10.33
2023-04-09T10:37:09.729Z,10.87
2023-04-09T10:39:42.806Z,10.05
2023-04-09T10:42:15.712Z,9.15
2023-04-09T10:44:44.518Z,8.65
2023-04-09T10:47:13.160Z,8.95
2023-04-09T10:49:42.881Z,8.73
2023-04-09T10:52:15.918Z,8.23
2023-04-09T10:54:49.308Z,8.20
2023-04-09T10:57:22.316Z,9.13
2023-04-09T10:59:52.766Z,8.73
2023-04-09T11:02:54.731Z,8.15
2023-04-09T11:05:44.649Z,9.02
2023-04-09T11:08:15.215Z,8.18
2023-04-09T11:10:52.268Z,8.02
2023-04-09T11:13:22.004Z,8.27
2023-04-09T11:15:50.313Z,8.38
2023-04-09T11:18:22.479Z,8.50
2023-04-09T11:20:51.006Z,12.05
2023-04-09T11:23:20.959Z,8.88
2023-04-09T11:25:51.937Z,14.95
2023-04-09T11:28:20.840Z,19.13
2023-04-09T11:30:51.363Z,28.48
2023-04-09T11:33:20.387Z,13.25
2023-04-09T11:35:49.260Z,13.50
2023-04-09T11:38:17.783Z,18.73
2023-04-09T11:40:53.937Z,15.13
2023-04-09T11:43:22.392Z,10.80
2023-04-09T11:45:51.008Z,9.32
2023-04-09T11:48:21.697Z,9.73
2023-04-09T11:50:50.122Z,8.35
2023-04-09T11:53:19.861Z,8.40
2023-04-09T11:55:52.377Z,11.55
2023-04-09T11:58:24.187Z,8.82
2023-04-09T12:00:55.583Z,9.18
2023-04-09T12:03:30.874Z,9.32
2023-04-09T12:06:02.759Z,11.50
2023-04-09T12:08:31.919Z,9.80
2023-04-09T12:11:10.600Z,9.88
2023-04-09T12:13:43.045Z,9.30
2023-04-09T12:16:11.831Z,14.07
2023-04-09T12:18:40.775Z,9.03
2023-04-09T12:21:09.100Z,9.88
2023-04-09T12:23:37.483Z,8.90
2023-04-09T12:26:07.256Z,9.17
2023-04-09T12:28:35.623Z,9.70
2023-04-09T12:31:03.966Z,10.15
2023-04-09T12:33:32.448Z,9.73
2023-04-09T12:36:00.799Z,10.07
2023-04-09T12:38:29.246Z,10.35
2023-04-09T12:40:57.610Z,10.50
2023-04-09T12:43:27.304Z,10.27
2023-04-09T12:45:55.880Z,10.07
2023-04-09T12:48:24.278Z,10.30
2023-04-09T12:50:52.624Z,8.80
2023-04-09T12:53:21.008Z,11.10
2023-04-09T12:55:49.286Z,10.30
2023-04-09T12:58:17.697Z,9.73
2023-04-09T13:00:47.418Z,9.85
2023-04-09T13:03:16.955Z,8.35
2023-04-09T13:05:45.485Z,9.18
2023-04-09T13:08:13.763Z,8.82
2023-04-09T13:10:42.260Z,8.47
2023-04-09T13:13:13.065Z,8.63
2023-04-09T13:15:43.416Z,8.73
2023-04-09T13:18:13.664Z,8.15
2023-04-09T13:20:43.256Z,8.52
2023-04-09T13:23:11.505Z,8.75
2023-04-09T13:25:39.885Z,7.68
2023-04-09T13:28:08.264Z,7.70
2023-04-09T13:30:36.865Z,8.77
2023-04-09T13:33:05.399Z,8.45
2023-04-09T13:35:35.233Z,8.27
2023-04-09T13:38:03.505Z,9.30
2023-04-09T13:40:31.921Z,8.65
2023-04-09T13:43:00.283Z,8.60
2023-04-09T13:45:28.649Z,7.70
2023-04-09T13:47:57.002Z,8.13
2023-04-09T13:50:25.365Z,6.93
2023-04-09T13:52:55.065Z,6.53
2023-04-09T13:55:23.323Z,7.05
2023-04-09T13:57:51.637Z,7.60
2023-04-09T14:00:20.843Z,7.03
2023-04-09T14:02:49.195Z,8.20
2023-04-09T14:05:17.767Z,8.90
2023-04-09T14:07:46.110Z,7.65
2023-04-09T14:10:15.958Z,6.85
2023-04-09T14:12:44.285Z,6.47
2023-04-09T14:15:13.173Z,6.72
2023-04-09T14:17:41.647Z,6.90
2023-04-09T14:20:10.629Z,6.53
2023-04-09T14:22:38.955Z,8.38
2023-04-09T14:25:08.265Z,7.07
2023-04-09T14:27:39.085Z,6.47
2023-04-09T14:30:10.855Z,6.65
2023-04-09T14:32:39.261Z,6.25
2023-04-09T14:35:07.985Z,6.57
2023-04-09T14:37:36.351Z,5.82
2023-04-09T14:40:04.790Z,6.55
2023-04-09T14:42:33.074Z,6.88
2023-04-09T14:45:03.231Z,6.43
2023-04-09T14:47:31.614Z,6.78
2023-04-09T14:50:00.011Z,6.40
2023-04-09T14:52:30.476Z,5.88
2023-04-09T14:54:58.859Z,6.35
2023-04-09T14:57:27.153Z,6.43
2023-04-09T14:59:55.425Z,6.93
2023-04-09T15:02:25.554Z,7.15
2023-04-09T15:04:54.110Z,6.88
2023-04-09T15:07:25.020Z,6.70
2023-04-09T15:09:53.464Z,6.68
2023-04-09T15:12:21.828Z,5.95
2023-04-09T15:14:50.140Z,7.53
2023-04-09T15:17:18.477Z,6.35
2023-04-09T15:19:48.393Z,5.82
2023-04-09T15:22:16.862Z,7.15
2023-04-09T15:24:45.205Z,6.80
2023-04-09T15:27:13.545Z,7.05
2023-04-09T15:29:41.862Z,7.07
2023-04-09T15:32:10.191Z,6.70
2023-04-09T15:34:38.625Z,6.60
2023-04-09T15:37:08.297Z,7.05
2023-04-09T15:39:36.604Z,6.90
2023-04-09T15:42:05.115Z,6.05
2023-04-09T15:44:33.903Z,6.50
2023-04-09T15:47:02.197Z,7.73
2023-04-09T15:49:30.498Z,6.10
2023-04-09T15:51:58.771Z,7.00
2023-04-09T15:54:28.431Z,7.50
2023-04-09T15:56:56.775Z,7.80
2023-04-09T15:59:25.024Z,7.10
2023-04-09T16:01:54.234Z,7.97
2023-04-09T16:04:22.611Z,8.07
2023-04-09T16:06:51.304Z,7.57
2023-04-09T16:09:19.617Z,9.00
2023-04-09T16:11:49.277Z,7.57
2023-04-09T16:14:17.559Z,7.70
2023-04-09T16:16:49.740Z,7.30
2023-04-09T16:19:18.810Z,7.30
2023-04-09T16:21:47.191Z,7.20
2023-04-09T16:24:16.159Z,6.33
2023-04-09T16:26:45.851Z,7.00
2023-04-09T16:29:16.410Z,6.90
2023-04-09T16:31:44.790Z,6.93
2023-04-09T16:34:13.248Z,7.43
2023-04-09T16:36:41.765Z,7.87
2023-04-09T16:39:10.967Z,7.83
2023-04-09T16:41:39.575Z,9.03
2023-04-09T16:44:07.988Z,9.17
2023-04-09T16:46:37.797Z,9.30
2023-04-09T16:49:06.120Z,9.40
2023-04-09T16:51:34.419Z,9.37
2023-04-09T16:54:03.167Z,9.27
2023-04-09T16:56:31.478Z,9.17
2023-04-09T16:58:59.794Z,9.83
2023-04-09T17:01:29.113Z,10.67
2023-04-09T17:04:00.769Z,10.03
2023-04-09T17:06:29.432Z,11.07
2023-04-09T17:08:57.988Z,11.37
2023-04-09T17:11:26.602Z,12.43
2023-04-09T17:13:55.443Z,12.10
2023-04-09T17:16:23.808Z,12.20
2023-04-09T17:18:52.482Z,12.00
2023-04-09T17:21:22.700Z,13.17
2023-04-09T17:23:51.156Z,12.33
2023-04-09T17:26:20.762Z,12.00
2023-04-09T17:28:49.123Z,12.90
2023-04-09T17:31:17.938Z,14.37
2023-04-09T17:33:48.761Z,17.67
2023-04-09T17:36:19.907Z,17.30
2023-04-09T17:38:52.073Z,18.60
2023-04-09T17:41:20.798Z,18.43
2023-04-09T17:43:52.005Z,19.50
2023-04-09T17:46:20.387Z,19.60
2023-04-09T17:48:49.147Z,20.27
2023-04-09T17:51:19.877Z,19.50
2023-04-09T17:53:49.687Z,19.13
2023-04-09T17:56:18.437Z,16.23
2023-04-09T17:58:47.015Z,16.80
2023-04-09T18:01:15.492Z,15.93
2023-04-09T18:03:45.768Z,15.83
2023-04-09T18:06:15.398Z,15.43
2023-04-09T18:08:43.760Z,15.90
2023-04-09T18:11:15.547Z,16.33
2023-04-09T18:13:43.835Z,16.37
2023-04-09T18:16:12.659Z,15.27
2023-04-09T18:18:41.429Z,16.20
2023-04-09T18:21:09.821Z,17.63
2023-04-09T18:23:39.544Z,17.83
2023-04-09T18:26:08.558Z,15.93
2023-04-09T18:28:38.224Z,14.43
2023-04-09T18:31:07.080Z,15.83
2023-04-09T18:33:35.519Z,14.93
2023-04-09T18:36:04.061Z,16.60
2023-04-09T18:38:32.356Z,16.40
2023-04-09T18:41:01.439Z,17.90
2023-04-09T18:43:29.753Z,17.13
2023-04-09T18:45:59.730Z,15.90
2023-04-09T18:48:33.043Z,15.60
2023-04-09T18:51:03.117Z,16.10
2023-04-09T18:53:31.856Z,16.03
2023-04-09T18:56:02.817Z,17.20
2023-04-09T18:58:31.436Z,16.67
2023-04-09T19:01:01.934Z,17.63
2023-04-09T19:03:31.080Z,17.30
2023-04-09T19:06:00.187Z,16.53
2023-04-09T19:08:32.361Z,16.97
2023-04-09T19:11:00.913Z,16.70
2023-04-09T19:13:29.205Z,16.50
2023-04-09T19:15:58.418Z,16.13
2023-04-09T19:18:30.783Z,17.67
2023-04-09T19:20:59.554Z,17.80
2023-04-09T19:23:31.049Z,17.00
2023-04-09T19:25:59.420Z,16.83
2023-04-09T19:28:27.726Z,17.53
2023-04-09T19:30:56.612Z,17.97
2023-04-09T19:33:26.456Z,18.13
2023-04-09T19:35:56.853Z,17.27
2023-04-09T19:38:25.596Z,18.33
2023-04-09T19:40:53.925Z,18.50
2023-04-09T19:43:22.213Z,17.40
2023-04-09T19:45:50.547Z,18.53
2023-04-09T19:48:18.847Z,17.90
2023-04-09T19:50:50.095Z,18.50
2023-04-09T19:53:19.757Z,18.70
2023-04-09T19:55:48.184Z,17.57
2023-04-09T19:58:16.633Z,17.27
2023-04-09T20:00:45.014Z,16.60
2023-04-09T20:03:13.520Z,17.50
2023-04-09T20:05:42.038Z,18.00
2023-04-09T20:08:13.497Z,18.63
2023-04-09T20:10:46.842Z,17.10
2023-04-09T20:13:15.176Z,16.33
2023-04-09T20:15:44.300Z,16.77
2023-04-09T20:18:12.772Z,14.37
2023-04-09T20:20:41.470Z,14.97
2023-04-09T20:23:09.861Z,14.67
2023-04-09T20:25:38.188Z,15.60
2023-04-09T20:28:09.911Z,15.33
2023-04-09T20:30:38.192Z,14.23
2023-04-09T20:33:06.656Z,13.60
2023-04-09T20:35:36.295Z,14.27
2023-04-09T20:38:04.693Z,14.37
2023-04-09T20:40:33.148Z,13.77
2023-04-09T20:43:01.491Z,13.10
2023-04-09T20:45:31.397Z,13.70
2023-04-09T20:47:59.808Z,13.43
2023-04-09T20:50:28.944Z,13.00
2023-04-09T20:52:57.626Z,13.50
2023-04-09T20:55:26.373Z,14.17
2023-04-09T20:57:55.391Z,13.63
2023-04-09T21:00:24.018Z,14.80
2023-04-09T21:02:54.207Z,14.10
2023-04-09T21:05:24.206Z,13.73
2023-04-09T21:07:53.214Z,14.73
2023-04-09T21:10:21.719Z,14.37
2023-04-09T21:12:50.077Z,14.80
2023-04-09T21:15:18.444Z,14.47
2023-04-09T21:17:46.894Z,14.10
2023-04-09T21:20:16.843Z,14.57
2023-04-09T21:22:45.153Z,14.03
2023-04-09T21:25:15.236Z,13.17
2023-04-09T21:27:43.940Z,14.77
2023-04-09T21:30:12.974Z,13.63
2023-04-09T21:32:41.337Z,13.23
2023-04-09T21:35:09.900Z,13.87
2023-04-09T21:37:39.643Z,13.73
2023-04-09T21:40:09.242Z,12.83
2023-04-09T21:42:37.517Z,13.87
2023-04-09T21:45:06.583Z,12.83
2023-04-09T21:47:34.912Z,13.20
2023-04-09T21:50:03.999Z,14.57
2023-04-09T21:52:32.428Z,13.43
2023-04-09T21:55:02.102Z,13.43
2023-04-09T21:57:30.562Z,13.30
2023-04-09T21:59:59.826Z,12.77
2023-04-09T22:02:28.941Z,13.80
2023-04-09T22:04:57.368Z,14.97
2023-04-09T22:07:25.905Z,12.77
2023-04-09T22:09:55.618Z,13.13
2023-04-09T22:12:25.470Z,12.27
2023-04-09T22:14:53.717Z,12.77
2023-04-09T22:17:22.096Z,12.50
2023-04-09T22:19:51.100Z,12.33
2023-04-09T22:22:19.437Z,11.97
2023-04-09T22:24:47.674Z,13.30
2023-04-09T22:27:16.184Z,12.20
2023-04-09T22:29:46.196Z,13.27
2023-04-09T22:32:14.545Z,12.60
2023-04-09T22:34:42.912Z,12.70
2023-04-09T22:37:11.441Z,12.83
2023-04-09T22:39:39.684Z,12.93
2023-04-09T22:42:09.288Z,13.50
2023-04-09T22:44:37.756Z,13.40
2023-04-09T22:47:07.388Z,13.37
2023-04-09T22:49:35.659Z,13.87
2023-04-09T22:52:03.986Z,13.30
2023-04-09T22:54:32.301Z,12.37
2023-04-09T22:57:01.330Z,13.37
2023-04-09T22:59:38.963Z,12.43
2023-04-09T23:02:09.590Z,11.97
2023-04-09T23:04:38.002Z,12.93
2023-04-09T23:07:06.383Z,13.33
2023-04-09T23:09:34.660Z,12.67
2023-04-09T23:12:03.409Z,12.90
2023-04-09T23:14:31.673Z,11.80
2023-04-09T23:16:59.935Z,12.80
2023-04-09T23:19:29.668Z,11.47
2023-04-09T23:21:57.970Z,13.60
2023-04-09T23:24:26.249Z,13.00
2023-04-09T23:26:54.605Z,12.13
2023-04-09T23:29:22.973Z,12.17
2023-04-09T23:31:51.433Z,13.47
2023-04-09T23:34:19.803Z,12.17
2023-04-09T23:36:49.536Z,12.70
2023-04-09T23:39:17.809Z,13.23
2023-04-09T23:41:46.082Z,12.13
2023-04-09T23:44:14.368Z,12.07
2023-04-09T23:46:42.803Z,12.57
2023-04-09T23:49:11.126Z,12.50
2023-04-09T23:51:39.458Z,13.00
2023-04-09T23:54:09.121Z,13.83
2023-04-09T23:56:37.580Z,11.87
2023-04-09T23:59:05.855Z,12.37
